Cortez, CO

11:19 AM MST on November 22, 2014 (GMT -0700)
Kelly Place B&B, McElmo Canyon | Change Station
CLOSE
Current Station
Personal Weather Station
Location: Cortez, CO
Elevation: 5522 ft
Nearby Weather Stations
Active Advisory: Special Weather Statement

Elev 5522 ft 37.34 °N, 108.79 °W | Updated 9 minutes ago

Clear
Clear
53.4 °F
Feels Like 53.4 °F
N
0.0
Wind Variable Wind from WNW
Gusts 5.8 mph

Today
High -- | Low -- °F
--% Chance of Precip.
Yesterday
High -- | Low -- °F
Precip. -- in
7:01 AM 5:00 PM
New Moon, 0% visible
Pressure 30.08 in
Visibility 10.0 miles
Clouds Clear
Dew Point 29 °F
Humidity 39%
Rainfall 0.00 in
Snow Depth Not available.
UV 3 out of 12
Pollen .30 out of 12
Air Quality Not available.
Flu Activity Not available.
METAR KCEZ 221753Z AUTO VRB03KT 10SM CLR 07/M06 A3009 RMK AO2 SLP185 T00671056 10067 21089 58013

More Conditions Fewer Conditions

Pressure 30.08 in
Visibility 10.0 miles
Clouds Clear
Dew Point 29 °F
Humidity 39%
Rainfall 0.00 in
Snow Depth Not available.
UV 3 out of 12
Pollen .30 out of 12
Air Quality Not available.
Flu Activity Not available.
METAR KCEZ 221753Z AUTO VRB03KT 10SM CLR 07/M06 A3009 RMK AO2 SLP185 T00671056 10067 21089 58013

More Conditions Fewer Conditions

10-Day Weather Forecast

Almanac

Astronomy

Nov. 22, 2014 Rise Set
Actual Time
Civil Twilight
Nautical Twilight
Astronomical Twilight
Moon
Length of Visible Light
Length of Day
Tomorrow will be .
, % of the Moon is Illuminated

Today's Extremes

State Highs State Lows

Community

WunderPhotos

Upload Photos

1,772,873 photos uploaded!

WunderBlogs® & News

Nearby

Air Quality

  Air Quality AQ Index Pollutant
Not available.

Snow Depth

Station Depth Elevation

Earthquake Activity

City Distance Mag. Time & Date
Minimum magnitude displayed is 2.5.

Coastal Water Temperatures

Place Temperature

Nearby Weather Stations